sensor_id;sensor_type;location;lat;lon;timestamp;P1;P2;P0
55076;PMS7003;40971;44.702;11.030;2023-05-07T00:09:51;25.33;25.33;21.00
55076;PMS7003;40971;44.702;11.030;2023-05-07T00:19:54;35.33;32.67;23.67
55076;PMS7003;40971;44.702;11.030;2023-05-07T00:29:56;28.00;28.00;22.00
55076;PMS7003;40971;44.702;11.030;2023-05-07T00:39:58;34.00;32.67;22.00
55076;PMS7003;40971;44.702;11.030;2023-05-07T00:50:03;29.63;26.50;21.00
55076;PMS7003;40971;44.702;11.030;2023-05-07T01:00:06;34.00;33.00;22.00
55076;PMS7003;40971;44.702;11.030;2023-05-07T01:10:14;38.00;37.33;26.00
55076;PMS7003;40971;44.702;11.030;2023-05-07T01:20:17;42.33;39.67;29.00
55076;PMS7003;40971;44.702;11.030;2023-05-07T01:30:20;39.00;37.33;27.33
55076;PMS7003;40971;44.702;11.030;2023-05-07T01:40:24;43.00;40.00;26.33
55076;PMS7003;40971;44.702;11.030;2023-05-07T01:50:32;43.33;40.00;25.67
55076;PMS7003;40971;44.702;11.030;2023-05-07T02:00:36;37.67;35.00;25.33
55076;PMS7003;40971;44.702;11.030;2023-05-07T02:10:38;46.33;42.33;28.00
55076;PMS7003;40971;44.702;11.030;2023-05-07T02:20:41;39.33;38.33;26.33
55076;PMS7003;40971;44.702;11.030;2023-05-07T02:30:43;41.33;39.67;26.67
55076;PMS7003;40971;44.702;11.030;2023-05-07T02:40:45;40.00;39.00;25.00
55076;PMS7003;40971;44.702;11.030;2023-05-07T02:50:47;33.67;33.67;25.33
55076;PMS7003;40971;44.702;11.030;2023-05-07T03:00:49;37.33;34.33;27.00
55076;PMS7003;40971;44.702;11.030;2023-05-07T03:10:54;40.56;38.78;27.56
55076;PMS7003;40971;44.702;11.030;2023-05-07T03:20:59;40.89;37.44;26.33
55076;PMS7003;40971;44.702;11.030;2023-05-07T03:31:01;42.00;40.33;24.33
55076;PMS7003;40971;44.702;11.030;2023-05-07T03:41:06;42.00;40.88;27.38
55076;PMS7003;40971;44.702;11.030;2023-05-07T03:51:08;48.00;40.33;27.00
55076;PMS7003;40971;44.702;11.030;2023-05-07T04:01:10;41.00;37.33;27.00
55076;PMS7003;40971;44.702;11.030;2023-05-07T04:11:13;43.00;38.67;27.00
55076;PMS7003;40971;44.702;11.030;2023-05-07T04:21:19;52.56;46.00;30.22
55076;PMS7003;40971;44.702;11.030;2023-05-07T04:31:23;52.67;44.33;29.33
55076;PMS7003;40971;44.702;11.030;2023-05-07T04:41:24;48.67;44.00;29.33
55076;PMS7003;40971;44.702;11.030;2023-05-07T04:51:26;54.00;47.67;32.00
55076;PMS7003;40971;44.702;11.030;2023-05-07T05:01:30;61.33;51.00;32.33
55076;PMS7003;40971;44.702;11.030;2023-05-07T05:11:32;64.00;53.67;33.33
55076;PMS7003;40971;44.702;11.030;2023-05-07T05:21:34;66.67;54.00;36.00
55076;PMS7003;40971;44.702;11.030;2023-05-07T05:31:36;62.33;51.67;37.00
55076;PMS7003;40971;44.702;11.030;2023-05-07T05:41:39;62.00;52.00;36.33
55076;PMS7003;40971;44.702;11.030;2023-05-07T05:51:42;58.33;49.67;33.67
55076;PMS7003;40971;44.702;11.030;2023-05-07T06:01:44;61.67;49.67;35.33
55076;PMS7003;40971;44.702;11.030;2023-05-07T06:11:49;59.78;49.89;34.00
55076;PMS7003;40971;44.702;11.030;2023-05-07T06:21:52;67.00;56.00;36.33
55076;PMS7003;40971;44.702;11.030;2023-05-07T06:31:55;62.00;52.00;35.00
55076;PMS7003;40971;44.702;11.030;2023-05-07T06:41:56;63.33;52.67;34.00
55076;PMS7003;40971;44.702;11.030;2023-05-07T06:51:59;60.33;50.33;33.67
55076;PMS7003;40971;44.702;11.030;2023-05-07T07:02:00;60.00;49.00;32.60
55076;PMS7003;40971;44.702;11.030;2023-05-07T07:12:02;53.00;44.75;29.25
55076;PMS7003;40971;44.702;11.030;2023-05-07T07:22:04;49.67;42.00;30.00
55076;PMS7003;40971;44.702;11.030;2023-05-07T07:32:06;45.00;40.00;27.00
55076;PMS7003;40971;44.702;11.030;2023-05-07T07:42:10;45.25;39.75;27.00
55076;PMS7003;40971;44.702;11.030;2023-05-07T07:52:13;49.25;41.25;26.25
55076;PMS7003;40971;44.702;11.030;2023-05-07T08:02:15;49.00;41.67;28.00
55076;PMS7003;40971;44.702;11.030;2023-05-07T08:12:19;47.13;41.00;28.88
55076;PMS7003;40971;44.702;11.030;2023-05-07T08:22:22;36.83;34.00;23.67
55076;PMS7003;40971;44.702;11.030;2023-05-07T08:32:23;41.50;37.00;25.00
55076;PMS7003;40971;44.702;11.030;2023-05-07T08:42:25;42.33;37.00;24.67
55076;PMS7003;40971;44.702;11.030;2023-05-07T08:52:31;49.25;42.00;29.00
55076;PMS7003;40971;44.702;11.030;2023-05-07T09:02:33;38.50;33.50;23.00
55076;PMS7003;40971;44.702;11.030;2023-05-07T09:12:37;37.33;34.33;23.17
55076;PMS7003;40971;44.702;11.030;2023-05-07T09:22:39;37.50;33.00;23.00
55076;PMS7003;40971;44.702;11.030;2023-05-07T09:32:40;23.50;22.50;18.00
55076;PMS7003;40971;44.702;11.030;2023-05-07T09:42:44;22.00;22.00;16.60
55076;PMS7003;40971;44.702;11.030;2023-05-07T09:52:47;15.67;15.67;11.67
55076;PMS7003;40971;44.702;11.030;2023-05-07T10:02:53;20.33;20.33;14.67
55076;PMS7003;40971;44.702;11.030;2023-05-07T10:12:57;13.00;13.00;10.00
55076;PMS7003;40971;44.702;11.030;2023-05-07T10:23:00;11.00;11.00;9.00
55076;PMS7003;40971;44.702;11.030;2023-05-07T10:33:06;20.33;20.33;15.00
55076;PMS7003;40971;44.702;11.030;2023-05-07T10:43:11;16.00;15.50;12.00
55076;PMS7003;40971;44.702;11.030;2023-05-07T11:03:20;23.33;22.33;17.33
55076;PMS7003;40971;44.702;11.030;2023-05-07T11:13:41;16.00;16.00;11.00
55076;PMS7003;40971;44.702;11.030;2023-05-07T11:33:48;10.00;8.67;7.00
55076;PMS7003;40971;44.702;11.030;2023-05-07T11:43:54;7.00;6.50;5.00
55076;PMS7003;40971;44.702;11.030;2023-05-07T11:53:57;8.00;8.00;7.00
55076;PMS7003;40971;44.702;11.030;2023-05-07T12:03:57;9.50;9.50;8.00
55076;PMS7003;40971;44.702;11.030;2023-05-07T12:13:59;8.33;8.33;7.33
55076;PMS7003;40971;44.702;11.030;2023-05-07T12:23:59;9.50;9.00;8.00
55076;PMS7003;40971;44.702;11.030;2023-05-07T12:34:01;9.00;9.00;8.00
55076;PMS7003;40971;44.702;11.030;2023-05-07T12:44:04;11.60;10.60;9.20
55076;PMS7003;40971;44.702;11.030;2023-05-07T12:54:05;11.00;11.00;9.00
55076;PMS7003;40971;44.702;11.030;2023-05-07T13:04:06;11.00;11.00;9.00
55076;PMS7003;40971;44.702;11.030;2023-05-07T13:14:07;9.00;9.00;7.00
55076;PMS7003;40971;44.702;11.030;2023-05-07T13:24:08;10.00;9.00;8.00
55076;PMS7003;40971;44.702;11.030;2023-05-07T13:34:11;13.14;10.14;9.00
55076;PMS7003;40971;44.702;11.030;2023-05-07T13:44:13;11.00;11.00;9.67
55076;PMS7003;40971;44.702;11.030;2023-05-07T13:54:14;10.67;10.67;9.00
55076;PMS7003;40971;44.702;11.030;2023-05-07T14:04:17;10.40;9.40;8.00
55076;PMS7003;40971;44.702;11.030;2023-05-07T14:14:18;10.67;10.67;8.67
55076;PMS7003;40971;44.702;11.030;2023-05-07T14:24:19;8.00;8.00;8.00
55076;PMS7003;40971;44.702;11.030;2023-05-07T14:34:20;11.00;11.00;8.00
55076;PMS7003;40971;44.702;11.030;2023-05-07T14:44:22;9.00;9.00;7.33
55076;PMS7003;40971;44.702;11.030;2023-05-07T14:54:23;10.67;10.67;8.00
55076;PMS7003;40971;44.702;11.030;2023-05-07T15:04:24;10.33;10.33;9.00
55076;PMS7003;40971;44.702;11.030;2023-05-07T15:14:27;11.29;10.57;9.00
55076;PMS7003;40971;44.702;11.030;2023-05-07T15:24:29;12.00;10.67;9.33
55076;PMS7003;40971;44.702;11.030;2023-05-07T15:34:31;13.00;13.00;11.33
55076;PMS7003;40971;44.702;11.030;2023-05-07T15:44:32;12.33;12.33;11.00
55076;PMS7003;40971;44.702;11.030;2023-05-07T15:54:34;13.50;13.00;10.00
55076;PMS7003;40971;44.702;11.030;2023-05-07T16:04:35;11.67;11.67;10.00
55076;PMS7003;40971;44.702;11.030;2023-05-07T16:14:37;13.00;13.00;10.33
55076;PMS7003;40971;44.702;11.030;2023-05-07T16:24:40;13.43;12.71;11.00
55076;PMS7003;40971;44.702;11.030;2023-05-07T16:34:41;13.67;13.67;11.00
55076;PMS7003;40971;44.702;11.030;2023-05-07T16:44:42;15.50;15.50;14.00
55076;PMS7003;40971;44.702;11.030;2023-05-07T16:54:46;15.75;14.25;11.50
55076;PMS7003;40971;44.702;11.030;2023-05-07T17:04:47;16.00;15.00;12.00
55076;PMS7003;40971;44.702;11.030;2023-05-07T17:14:49;17.67;17.67;14.00
55076;PMS7003;40971;44.702;11.030;2023-05-07T17:24:53;18.50;17.38;13.38
55076;PMS7003;40971;44.702;11.030;2023-05-07T17:34:54;19.00;19.00;15.00
55076;PMS7003;40971;44.702;11.030;2023-05-07T17:44:57;17.00;16.00;13.60
55076;PMS7003;40971;44.702;11.030;2023-05-07T17:54:58;19.00;18.00;15.50
55076;PMS7003;40971;44.702;11.030;2023-05-07T18:04:59;22.50;21.50;16.00
55076;PMS7003;40971;44.702;11.030;2023-05-07T18:15:02;23.00;23.00;19.00
55076;PMS7003;40971;44.702;11.030;2023-05-07T18:25:05;21.00;20.67;15.33
55076;PMS7003;40971;44.702;11.030;2023-05-07T18:35:08;21.00;21.00;16.67
55076;PMS7003;40971;44.702;11.030;2023-05-07T18:45:13;25.00;23.89;17.89
55076;PMS7003;40971;44.702;11.030;2023-05-07T18:55:16;26.00;24.00;19.33
55076;PMS7003;40971;44.702;11.030;2023-05-07T19:05:19;23.33;20.33;16.67
55076;PMS7003;40971;44.702;11.030;2023-05-07T19:15:22;24.00;24.00;19.67
55076;PMS7003;40971;44.702;11.030;2023-05-07T19:25:24;27.67;26.00;18.00
55076;PMS7003;40971;44.702;11.030;2023-05-07T19:35:46;30.00;27.33;19.33
55076;PMS7003;40971;44.702;11.030;2023-05-07T19:56:28;30.33;29.00;20.67
55076;PMS7003;40971;44.702;11.030;2023-05-07T20:06:33;32.78;31.00;22.89
55076;PMS7003;40971;44.702;11.030;2023-05-07T20:16:54;33.33;31.00;23.33
55076;PMS7003;40971;44.702;11.030;2023-05-07T20:26:56;29.20;27.40;19.60
55076;PMS7003;40971;44.702;11.030;2023-05-07T20:37:17;32.33;30.00;20.67
55076;PMS7003;40971;44.702;11.030;2023-05-07T20:47:22;31.22;30.22;23.00
55076;PMS7003;40971;44.702;11.030;2023-05-07T20:57:27;35.11;31.11;22.00
55076;PMS7003;40971;44.702;11.030;2023-05-07T21:07:29;31.67;31.67;24.00
55076;PMS7003;40971;44.702;11.030;2023-05-07T21:17:33;36.50;34.63;24.00
55076;PMS7003;40971;44.702;11.030;2023-05-07T21:27:54;38.33;37.00;27.00
55076;PMS7003;40971;44.702;11.030;2023-05-07T21:48:37;37.33;36.00;25.00
55076;PMS7003;40971;44.702;11.030;2023-05-07T21:58:59;33.00;32.67;24.33
55076;PMS7003;40971;44.702;11.030;2023-05-07T22:30:20;35.33;34.00;22.67
55076;PMS7003;40971;44.702;11.030;2023-05-07T22:40:22;40.00;36.00;25.00
55076;PMS7003;40971;44.702;11.030;2023-05-07T22:50:24;45.25;41.25;28.25
55076;PMS7003;40971;44.702;11.030;2023-05-07T23:00:26;43.00;39.67;26.33
55076;PMS7003;40971;44.702;11.030;2023-05-07T23:10:48;36.00;35.33;25.00
55076;PMS7003;40971;44.702;11.030;2023-05-07T23:20:49;51.67;44.00;29.67
55076;PMS7003;40971;44.702;11.030;2023-05-07T23:30:53;48.63;41.38;29.13
55076;PMS7003;40971;44.702;11.030;2023-05-07T23:40:56;36.33;31.33;25.00
55076;PMS7003;40971;44.702;11.030;2023-05-07T23:51:16;40.00;37.67;26.00
